createdAt,value
2022-10-01T00:01:14.041Z,5.07
2022-10-01T00:02:45.866Z,5.07
2022-10-01T00:04:17.677Z,5.20
2022-10-01T00:06:09.669Z,5.15
2022-10-01T00:07:42.438Z,5.43
2022-10-01T00:09:14.161Z,4.63
2022-10-01T00:10:45.902Z,4.68
2022-10-01T00:12:17.549Z,4.90
2022-10-01T00:13:49.661Z,4.88
2022-10-01T00:15:24.759Z,5.20
2022-10-01T00:16:56.605Z,5.97
2022-10-01T00:18:29.792Z,5.85
2022-10-01T00:20:02.547Z,5.45
2022-10-01T00:21:34.747Z,5.38
2022-10-01T00:23:32.590Z,5.65
2022-10-01T00:25:10.513Z,5.90
2022-10-01T00:26:42.637Z,5.38
2022-10-01T00:28:14.491Z,5.75
2022-10-01T00:29:46.259Z,5.85
2022-10-01T00:31:18.094Z,6.50
2022-10-01T00:32:53.053Z,5.80
2022-10-01T00:34:25.018Z,6.05
2022-10-01T00:35:58.179Z,6.05
2022-10-01T00:37:29.925Z,6.72
2022-10-01T00:39:02.370Z,6.50
2022-10-01T00:40:34.159Z,5.78
2022-10-01T00:42:18.311Z,5.45
2022-10-01T00:43:53.806Z,5.43
2022-10-01T00:45:25.519Z,6.38
2022-10-01T00:47:00.479Z,6.25
2022-10-01T00:48:35.135Z,5.30
2022-10-01T00:50:13.643Z,5.40
2022-10-01T00:51:49.794Z,5.30
2022-10-01T00:53:22.467Z,5.72
2022-10-01T00:54:57.393Z,4.72
2022-10-01T00:56:31.496Z,5.18
2022-10-01T00:58:04.274Z,4.55
2022-10-01T01:01:07.851Z,5.18
2022-10-01T01:02:40.388Z,5.47
2022-10-01T01:04:17.762Z,5.50
2022-10-01T01:05:50.463Z,5.28
2022-10-01T01:07:22.372Z,4.60
2022-10-01T01:08:55.278Z,4.32
2022-10-01T01:12:06.523Z,4.53
2022-10-01T01:13:43.658Z,4.57
2022-10-01T01:15:27.888Z,4.90
2022-10-01T01:17:01.745Z,4.40
2022-10-01T01:18:36.663Z,4.70
2022-10-01T01:20:08.466Z,4.22
2022-10-01T01:21:41.458Z,4.50
2022-10-01T01:24:46.843Z,5.18
2022-10-01T01:26:48.504Z,4.47
2022-10-01T01:28:23.299Z,4.95
2022-10-01T01:30:08.602Z,4.20
2022-10-01T01:31:52.993Z,4.93
2022-10-01T01:33:34.968Z,4.32
2022-10-01T01:35:08.419Z,4.82
2022-10-01T01:36:44.517Z,4.72
2022-10-01T01:38:35.219Z,5.13
2022-10-01T01:41:55.993Z,5.13
2022-10-01T01:43:33.534Z,4.85
2022-10-01T01:45:12.096Z,5.43
2022-10-01T01:46:48.745Z,5.22
2022-10-01T01:48:22.246Z,4.95
2022-10-01T01:49:58.841Z,5.25
2022-10-01T01:51:49.444Z,4.90
2022-10-01T01:53:27.282Z,5.00
2022-10-01T01:55:08.910Z,5.15
2022-10-01T01:59:16.623Z,5.55
2022-10-01T02:01:22.597Z,5.82
2022-10-01T02:03:14.416Z,5.35
2022-10-01T02:12:24.077Z,5.22
2022-10-01T02:14:58.686Z,5.30
2022-10-01T02:16:50.936Z,5.65
2022-10-01T02:18:28.770Z,6.10
2022-10-01T02:20:04.940Z,4.95
2022-10-01T02:21:37.152Z,6.35
2022-10-01T02:23:15.354Z,5.20
2022-10-01T02:25:06.338Z,5.50
2022-10-01T02:27:02.668Z,5.03
2022-10-01T02:29:06.048Z,4.82
2022-10-01T02:30:49.328Z,5.10
2022-10-01T02:32:25.740Z,5.32
2022-10-01T02:33:58.698Z,4.55
2022-10-01T02:35:34.875Z,5.22
2022-10-01T02:37:07.601Z,4.18
2022-10-01T02:39:08.119Z,4.88
2022-10-01T02:41:15.372Z,4.22
2022-10-01T02:43:00.184Z,3.70
2022-10-01T02:45:45.221Z,4.35
2022-10-01T02:48:47.908Z,3.13
2022-10-01T02:50:26.895Z,3.50
2022-10-01T02:52:24.148Z,3.10
2022-10-01T02:54:09.142Z,3.97
2022-10-01T02:55:43.982Z,3.50
2022-10-01T02:57:35.073Z,2.47
2022-10-01T02:59:13.065Z,3.28
2022-10-01T03:00:45.124Z,2.78
2022-10-01T03:02:17.689Z,3.63
2022-10-01T03:03:59.397Z,3.08
2022-10-01T03:05:34.147Z,2.78
2022-10-01T03:07:08.691Z,2.50
2022-10-01T03:08:40.665Z,2.08
2022-10-01T03:10:16.507Z,2.53
2022-10-01T03:11:48.466Z,2.42
2022-10-01T03:13:25.428Z,2.53
2022-10-01T03:14:57.534Z,2.35
2022-10-01T03:16:29.562Z,2.40
2022-10-01T03:18:01.452Z,2.20
2022-10-01T03:19:33.374Z,2.22
2022-10-01T03:21:05.216Z,2.40
2022-10-01T03:22:36.924Z,1.98
2022-10-01T03:24:09.868Z,2.25
2022-10-01T03:25:41.781Z,1.90
2022-10-01T03:27:13.639Z,1.45
2022-10-01T03:28:54.296Z,1.95
2022-10-01T03:30:27.190Z,1.90
2022-10-01T03:33:30.785Z,1.20
2022-10-01T03:35:02.746Z,1.20
2022-10-01T03:36:37.797Z,1.05
2022-10-01T03:38:09.629Z,1.40
2022-10-01T03:39:43.978Z,0.93
2022-10-01T03:41:27.389Z,1.02
2022-10-01T03:46:22.002Z,1.17
2022-10-01T03:47:54.034Z,1.10
2022-10-01T03:49:27.965Z,1.00
2022-10-01T03:51:02.861Z,0.95
2022-10-01T03:52:34.624Z,0.90
2022-10-01T03:54:07.183Z,1.00
2022-10-01T03:55:39.047Z,1.10
2022-10-01T03:57:10.906Z,0.90
2022-10-01T03:58:50.667Z,0.80
2022-10-01T04:00:22.481Z,0.70
2022-10-01T04:02:20.452Z,0.68
2022-10-01T04:03:52.647Z,0.63
2022-10-01T04:05:27.537Z,0.70
2022-10-01T04:06:59.413Z,0.60
2022-10-01T04:08:31.373Z,0.50
2022-10-01T04:10:03.214Z,0.63
2022-10-01T04:11:35.340Z,0.60
2022-10-01T04:13:07.696Z,0.70
2022-10-01T04:14:39.418Z,0.38
2022-10-01T04:16:14.014Z,0.47
2022-10-01T04:17:46.237Z,0.52
2022-10-01T04:19:18.426Z,0.60
2022-10-01T04:20:50.330Z,0.50
2022-10-01T04:22:22.956Z,0.50
2022-10-01T04:24:07.864Z,0.25
2022-10-01T04:25:42.324Z,0.30
2022-10-01T04:27:14.282Z,0.40
2022-10-01T04:28:48.852Z,0.30
2022-10-01T04:30:20.783Z,0.40
2022-10-01T04:32:03.733Z,0.22
2022-10-01T04:33:35.925Z,0.30
2022-10-01T04:35:09.171Z,0.45
2022-10-01T04:36:41.123Z,0.47
2022-10-01T04:38:17.082Z,0.52
2022-10-01T04:39:48.865Z,0.30
2022-10-01T04:41:22.783Z,0.25
2022-10-01T04:42:54.636Z,0.30
2022-10-01T04:44:26.499Z,0.30
2022-10-01T04:45:58.278Z,0.52
2022-10-01T04:47:31.278Z,0.22
2022-10-01T04:49:05.417Z,0.38
2022-10-01T04:50:37.331Z,0.20
2022-10-01T04:52:09.152Z,0.35
2022-10-01T04:53:40.978Z,0.20
2022-10-01T04:55:14.506Z,0.15
2022-10-01T04:56:49.361Z,0.20
2022-10-01T04:58:21.250Z,0.30
2022-10-01T04:59:53.136Z,0.23
2022-10-01T05:01:27.305Z,0.20
2022-10-01T05:04:33.796Z,0.25
2022-10-01T05:06:08.739Z,0.30
2022-10-01T05:07:40.914Z,0.20
2022-10-01T05:09:16.899Z,0.43
2022-10-01T05:10:51.813Z,0.30
2022-10-01T05:12:40.425Z,0.30
2022-10-01T05:19:28.138Z,0.20
2022-10-01T05:21:12.549Z,0.43
2022-10-01T05:22:51.083Z,0.20
2022-10-01T05:24:22.993Z,0.20
2022-10-01T05:26:01.626Z,0.28
2022-10-01T05:27:40.748Z,0.30
2022-10-01T05:29:15.461Z,0.30
2022-10-01T05:30:50.513Z,0.40
2022-10-01T05:32:22.699Z,0.30
2022-10-01T05:33:57.559Z,1.15
2022-10-01T05:35:30.042Z,0.40
2022-10-01T05:37:03.050Z,0.38
2022-10-01T05:38:37.620Z,0.32
2022-10-01T05:40:10.598Z,0.50
2022-10-01T05:41:42.502Z,0.28
2022-10-01T05:43:16.251Z,0.40
2022-10-01T05:44:52.616Z,0.40
2022-10-01T05:46:29.277Z,0.30
2022-10-01T05:48:04.933Z,0.30
2022-10-01T05:49:44.088Z,0.40
2022-10-01T05:51:16.372Z,0.40
2022-10-01T05:52:49.397Z,0.35
2022-10-01T05:54:23.509Z,0.40
2022-10-01T05:55:56.633Z,0.30
2022-10-01T05:57:31.543Z,0.30
2022-10-01T05:59:04.791Z,0.30
2022-10-01T06:00:38.969Z,0.47
2022-10-01T06:02:10.822Z,0.30
2022-10-01T06:03:43.262Z,0.37
2022-10-01T06:05:15.225Z,0.40
2022-10-01T06:06:47.247Z,0.30
2022-10-01T06:08:19.699Z,0.60
2022-10-01T06:09:54.162Z,0.40
2022-10-01T06:11:27.294Z,0.38
2022-10-01T06:13:05.349Z,0.20
2022-10-01T06:14:37.292Z,0.30
2022-10-01T06:16:09.372Z,0.30
2022-10-01T06:17:45.185Z,0.35
2022-10-01T06:19:19.776Z,0.30
2022-10-01T06:20:55.297Z,0.40
2022-10-01T06:22:56.822Z,0.40
2022-10-01T06:24:36.354Z,0.50
2022-10-01T06:26:15.303Z,0.55
2022-10-01T06:28:00.578Z,0.57
2022-10-01T06:29:35.061Z,0.30
2022-10-01T06:31:08.164Z,0.30
2022-10-01T06:32:40.307Z,0.38
2022-10-01T06:34:16.428Z,0.45
2022-10-01T06:36:13.768Z,0.57
2022-10-01T06:37:47.881Z,0.38
2022-10-01T06:39:23.757Z,0.52
2022-10-01T06:41:08.388Z,0.40
2022-10-01T06:42:47.520Z,0.30
2022-10-01T06:44:20.792Z,0.50
2022-10-01T06:46:29.414Z,0.30
2022-10-01T06:48:14.162Z,0.47
2022-10-01T06:49:47.823Z,0.70
2022-10-01T06:51:42.652Z,0.43
2022-10-01T06:53:23.000Z,0.50
2022-10-01T06:54:56.970Z,0.45
2022-10-01T06:56:28.922Z,0.60
2022-10-01T06:58:04.962Z,0.50
2022-10-01T06:59:37.383Z,0.60
2022-10-01T07:01:09.895Z,0.50
2022-10-01T07:02:41.861Z,0.50
2022-10-01T07:04:15.926Z,0.50
2022-10-01T07:06:16.396Z,0.60
2022-10-01T07:07:49.267Z,0.40
2022-10-01T07:09:27.517Z,0.65
2022-10-01T07:11:07.515Z,0.40
2022-10-01T07:13:35.867Z,0.60
2022-10-01T07:16:32.617Z,0.50
2022-10-01T07:18:10.703Z,0.70
2022-10-01T07:19:53.637Z,0.70
2022-10-01T07:21:50.459Z,0.60
2022-10-01T07:23:46.687Z,0.75
2022-10-01T07:28:23.130Z,0.90
2022-10-01T07:53:33.943Z,1.83
2022-10-01T07:55:27.469Z,1.40
2022-10-01T07:57:10.828Z,1.45
2022-10-01T07:58:43.658Z,1.50
2022-10-01T08:01:51.970Z,1.20
2022-10-01T08:03:24.214Z,1.77
2022-10-01T08:05:14.303Z,1.70
2022-10-01T08:06:47.502Z,1.58
2022-10-01T08:08:20.941Z,3.08
2022-10-01T08:09:52.850Z,2.22
2022-10-01T08:11:25.367Z,2.40
2022-10-01T08:13:01.588Z,1.90
2022-10-01T08:14:33.466Z,2.25
2022-10-01T08:16:06.664Z,2.13
2022-10-01T08:17:41.418Z,3.28
2022-10-01T08:19:15.977Z,1.95
2022-10-01T08:22:53.250Z,2.42
2022-10-01T08:24:25.193Z,2.20
2022-10-01T08:26:01.344Z,1.80
2022-10-01T08:27:33.265Z,2.38
2022-10-01T08:29:05.151Z,2.70
2022-10-01T08:30:40.054Z,2.50
2022-10-01T08:32:14.719Z,2.97
2022-10-01T08:33:46.607Z,2.60
2022-10-01T08:35:18.425Z,2.40
2022-10-01T08:36:53.063Z,2.20
2022-10-01T08:38:25.359Z,2.30
2022-10-01T08:39:57.381Z,2.08
2022-10-01T08:41:49.925Z,2.47
2022-10-01T08:43:26.815Z,1.98
2022-10-01T08:45:06.466Z,1.92
2022-10-01T08:46:41.903Z,2.03
2022-10-01T08:48:16.899Z,2.30
2022-10-01T08:49:58.268Z,1.92
2022-10-01T08:51:38.459Z,2.05
2022-10-01T08:53:34.306Z,2.20
2022-10-01T08:55:13.557Z,2.28
2022-10-01T08:56:46.811Z,2.30
2022-10-01T08:58:25.235Z,2.20
2022-10-01T08:59:59.724Z,2.00
2022-10-01T09:01:31.658Z,2.35
2022-10-01T09:03:07.344Z,2.55
2022-10-01T09:04:39.341Z,2.58
2022-10-01T09:06:18.290Z,2.70
2022-10-01T09:08:03.689Z,2.33
2022-10-01T09:09:48.089Z,2.53
2022-10-01T09:11:29.689Z,2.70
2022-10-01T09:13:07.515Z,2.70
2022-10-01T09:15:00.541Z,2.83
2022-10-01T09:16:41.147Z,2.65
2022-10-01T09:18:40.886Z,2.30
2022-10-01T09:20:43.130Z,2.33
2022-10-01T09:22:26.235Z,2.72
2022-10-01T09:24:05.270Z,2.20
2022-10-01T09:25:38.352Z,2.13
2022-10-01T09:27:21.859Z,1.80
2022-10-01T09:29:01.250Z,2.25
2022-10-01T09:30:33.353Z,1.92
2022-10-01T09:32:06.330Z,1.77
2022-10-01T09:33:41.313Z,1.95
2022-10-01T09:35:33.726Z,1.67
2022-10-01T09:37:15.010Z,1.65
2022-10-01T09:38:54.144Z,1.67
2022-10-01T09:40:38.739Z,1.70
2022-10-01T09:42:15.767Z,1.75
2022-10-01T09:43:48.049Z,2.00
2022-10-01T09:45:21.170Z,1.70
2022-10-01T09:46:53.032Z,2.00
2022-10-01T09:48:24.935Z,1.70
2022-10-01T09:49:58.893Z,1.50
2022-10-01T09:51:41.285Z,1.70
2022-10-01T09:53:19.584Z,2.60
2022-10-01T09:54:54.014Z,1.83
2022-10-01T09:56:29.256Z,2.47
2022-10-01T09:58:03.800Z,2.65
2022-10-01T09:59:46.707Z,2.78
2022-10-01T10:01:22.043Z,3.28
2022-10-01T10:02:54.756Z,3.30
2022-10-01T10:06:00.211Z,3.75
2022-10-01T10:07:32.916Z,3.60
2022-10-01T10:09:15.069Z,4.70
2022-10-01T10:10:57.547Z,3.90
2022-10-01T10:12:30.103Z,4.10
2022-10-01T10:14:04.787Z,4.13
2022-10-01T10:15:41.501Z,4.72
2022-10-01T10:17:16.910Z,4.25
2022-10-01T10:18:52.743Z,4.18
2022-10-01T10:20:29.952Z,4.25
2022-10-01T10:22:12.432Z,4.35
2022-10-01T10:23:51.136Z,4.82
2022-10-01T10:25:24.565Z,3.58
2022-10-01T10:27:01.220Z,3.70
2022-10-01T10:28:44.900Z,3.70
2022-10-01T10:30:17.779Z,4.55
2022-10-01T10:33:25.641Z,2.95
2022-10-01T10:35:03.075Z,3.92
2022-10-01T10:36:37.181Z,3.10
2022-10-01T10:38:16.945Z,3.67
2022-10-01T10:39:51.484Z,3.30
2022-10-01T10:41:26.826Z,3.10
2022-10-01T10:42:59.399Z,2.80
2022-10-01T10:44:36.472Z,3.33
2022-10-01T10:46:09.883Z,3.42
2022-10-01T10:47:47.322Z,3.50
2022-10-01T10:49:19.555Z,3.67
2022-10-01T10:51:24.305Z,4.20
2022-10-01T10:53:11.535Z,3.83
2022-10-01T10:54:56.198Z,4.65
2022-10-01T10:56:28.147Z,4.05
2022-10-01T10:58:12.651Z,3.88
2022-10-01T10:59:59.199Z,3.70
2022-10-01T11:01:34.119Z,3.53
2022-10-01T11:03:16.109Z,4.57
2022-10-01T11:04:53.179Z,4.35
2022-10-01T11:06:25.444Z,3.13
2022-10-01T11:08:02.982Z,2.35
2022-10-01T11:09:53.564Z,2.55
2022-10-01T11:11:35.661Z,2.60
2022-10-01T11:13:22.838Z,3.08
2022-10-01T11:15:26.633Z,1.88
2022-10-01T11:19:57.120Z,2.78
2022-10-01T11:22:15.005Z,2.22
2022-10-01T11:23:53.922Z,2.70
2022-10-01T11:25:36.433Z,2.05
2022-10-01T11:29:26.670Z,1.90
2022-10-01T11:31:02.139Z,1.80
2022-10-01T11:32:37.095Z,2.53
2022-10-01T11:34:38.030Z,2.00
2022-10-01T11:36:15.267Z,2.63
2022-10-01T11:37:53.202Z,2.72
2022-10-01T11:39:26.382Z,2.72
2022-10-01T11:41:12.987Z,2.20
2022-10-01T11:42:46.481Z,2.30
2022-10-01T11:45:53.104Z,2.83
2022-10-01T11:47:30.884Z,2.50
2022-10-01T11:49:02.730Z,2.67
2022-10-01T11:50:42.755Z,2.35
2022-10-01T11:52:21.263Z,2.72
2022-10-01T11:53:59.671Z,2.90
2022-10-01T11:55:52.725Z,2.72
2022-10-01T11:57:44.548Z,2.70
2022-10-01T11:59:34.396Z,2.10
2022-10-01T12:01:36.334Z,2.20
2022-10-01T12:03:12.846Z,2.08
2022-10-01T12:04:54.876Z,2.35
2022-10-01T12:06:33.737Z,2.85
2022-10-01T12:08:12.541Z,2.53
2022-10-01T12:10:02.801Z,3.80
2022-10-01T12:11:44.298Z,2.75
2022-10-01T12:13:34.718Z,2.58
2022-10-01T12:15:12.147Z,2.97
2022-10-01T12:16:58.916Z,3.40
2022-10-01T12:18:41.834Z,2.53
2022-10-01T12:20:28.653Z,2.85
2022-10-01T12:22:04.016Z,2.90
2022-10-01T12:23:59.072Z,2.67
2022-10-01T12:25:40.467Z,2.60
2022-10-01T12:27:33.813Z,3.03
2022-10-01T12:29:10.577Z,2.45
2022-10-01T12:30:55.206Z,2.40
2022-10-01T12:32:45.646Z,2.88
2022-10-01T12:34:19.760Z,3.28
2022-10-01T12:35:57.770Z,2.47
2022-10-01T12:37:33.421Z,2.72
2022-10-01T12:39:07.880Z,3.22
2022-10-01T12:40:46.925Z,2.40
2022-10-01T12:42:31.573Z,2.90
2022-10-01T12:44:25.419Z,2.50
2022-10-01T12:46:12.560Z,1.70
2022-10-01T12:48:00.062Z,1.67
2022-10-01T12:49:49.528Z,2.78
2022-10-01T12:51:21.344Z,2.20
2022-10-01T12:52:53.079Z,1.42
2022-10-01T12:54:31.271Z,1.92
2022-10-01T12:56:24.785Z,1.60
2022-10-01T12:58:05.987Z,2.17
2022-10-01T12:59:44.677Z,2.40
2022-10-01T13:01:19.250Z,2.03
2022-10-01T13:02:50.981Z,2.08
2022-10-01T13:04:34.996Z,1.95
2022-10-01T13:06:08.078Z,1.90
2022-10-01T13:07:47.133Z,2.10
2022-10-01T13:09:25.198Z,2.00
2022-10-01T13:11:06.905Z,2.60
2022-10-01T13:13:02.119Z,1.73
2022-10-01T13:14:36.295Z,1.85
2022-10-01T13:16:14.788Z,2.13
2022-10-01T13:17:56.081Z,2.20
2022-10-01T13:19:33.567Z,1.92
2022-10-01T13:21:17.458Z,2.50
2022-10-01T13:22:57.473Z,2.13
2022-10-01T13:24:42.202Z,2.60
2022-10-01T13:26:19.502Z,1.90
2022-10-01T13:28:02.379Z,1.50
2022-10-01T13:29:46.108Z,2.10
2022-10-01T13:31:21.052Z,2.58
2022-10-01T13:32:54.744Z,2.10
2022-10-01T13:34:43.037Z,2.05
2022-10-01T13:36:19.309Z,2.20
2022-10-01T13:37:51.433Z,1.70
2022-10-01T13:39:24.118Z,1.75
2022-10-01T13:41:01.934Z,1.67
2022-10-01T13:42:44.742Z,2.22
2022-10-01T13:44:26.686Z,1.90
2022-10-01T13:46:06.142Z,1.52
2022-10-01T13:47:41.455Z,1.70
2022-10-01T13:49:23.449Z,1.70
2022-10-01T13:55:55.129Z,1.98
2022-10-01T13:58:15.007Z,1.65
2022-10-01T14:03:14.316Z,1.85
2022-10-01T14:05:34.259Z,1.73
2022-10-01T14:06:39.303Z,1.73
2022-10-01T14:07:18.140Z,2.08
2022-10-01T14:09:00.408Z,2.08
2022-10-01T14:10:37.011Z,3.17
2022-10-01T14:12:38.108Z,1.95
2022-10-01T14:14:30.387Z,1.45
2022-10-01T14:16:05.760Z,1.70
2022-10-01T14:17:37.940Z,1.95
2022-10-01T14:19:10.282Z,1.50
2022-10-01T14:20:53.569Z,1.77
2022-10-01T14:22:38.424Z,2.33
2022-10-01T14:24:16.972Z,1.27
2022-10-01T14:25:58.626Z,1.50
2022-10-01T14:27:38.721Z,1.23
2022-10-01T14:29:21.981Z,1.80
2022-10-01T14:30:56.679Z,1.88
2022-10-01T14:32:28.703Z,1.98
2022-10-01T14:34:09.430Z,1.90
2022-10-01T14:35:41.319Z,1.30
2022-10-01T14:37:17.389Z,2.60
2022-10-01T14:38:49.742Z,2.03
2022-10-01T14:40:23.088Z,2.08
2022-10-01T14:41:59.463Z,1.30
2022-10-01T14:43:31.944Z,2.33
2022-10-01T14:45:14.381Z,1.08
2022-10-01T14:46:47.421Z,1.40
2022-10-01T14:48:19.252Z,1.63
2022-10-01T14:49:53.952Z,1.33
2022-10-01T14:51:27.101Z,2.13
2022-10-01T14:53:02.181Z,1.10
2022-10-01T14:54:41.279Z,1.75
2022-10-01T14:56:14.335Z,1.23
2022-10-01T14:57:49.659Z,1.23
2022-10-01T14:59:34.545Z,1.48
2022-10-01T15:01:06.709Z,1.48
2022-10-01T15:02:45.765Z,1.58
2022-10-01T15:04:21.439Z,1.50
2022-10-01T15:06:03.419Z,1.23
2022-10-01T15:07:36.813Z,1.10
2022-10-01T15:09:14.496Z,1.08
2022-10-01T15:10:57.777Z,1.08
2022-10-01T15:14:06.472Z,1.33
2022-10-01T15:15:41.628Z,1.58
2022-10-01T15:17:31.191Z,1.88
2022-10-01T15:19:10.355Z,1.00
2022-10-01T15:21:14.223Z,1.05
2022-10-01T15:24:20.720Z,1.30
2022-10-01T15:25:56.331Z,1.10
2022-10-01T15:27:30.341Z,1.25
2022-10-01T15:29:14.881Z,1.90
2022-10-01T15:30:49.911Z,2.17
2022-10-01T15:32:23.508Z,0.98
2022-10-01T16:55:27.232Z,2.58
2022-10-01T16:57:00.713Z,2.22
2022-10-01T16:58:40.238Z,1.75
2022-10-01T17:00:18.656Z,1.58
2022-10-01T17:01:53.906Z,1.88
2022-10-01T17:03:27.086Z,1.73
2022-10-01T17:05:01.522Z,2.13
2022-10-01T17:06:50.922Z,1.75
2022-10-01T17:09:03.360Z,1.88
2022-10-01T17:10:43.432Z,2.42
2022-10-01T17:12:17.858Z,1.95
2022-10-01T17:13:49.960Z,2.20
2022-10-01T17:15:31.322Z,2.08
2022-10-01T17:17:06.497Z,1.55
2022-10-01T17:18:39.265Z,1.90
2022-10-01T17:20:14.185Z,1.60
2022-10-01T17:21:56.500Z,1.95
2022-10-01T17:23:30.633Z,1.83
2022-10-01T17:25:14.674Z,1.70
2022-10-01T17:26:50.307Z,2.10
2022-10-01T17:28:46.618Z,1.95
2022-10-01T17:30:22.290Z,2.05
2022-10-01T17:32:26.579Z,1.52
2022-10-01T17:34:14.976Z,2.17
2022-10-01T17:35:57.484Z,1.88
2022-10-01T17:37:29.422Z,1.90
2022-10-01T17:39:04.246Z,1.20
2022-10-01T17:40:40.094Z,1.67
2022-10-01T17:42:16.981Z,1.55
2022-10-01T17:43:50.866Z,2.25
2022-10-01T17:45:30.737Z,1.88
2022-10-01T17:47:05.930Z,2.33
2022-10-01T17:48:39.300Z,1.70
2022-10-01T17:50:17.912Z,2.10
2022-10-01T17:51:49.655Z,1.92
2022-10-01T17:53:23.784Z,1.88
2022-10-01T17:54:55.704Z,2.13
2022-10-01T17:56:29.135Z,2.83
2022-10-01T17:58:02.946Z,2.20
2022-10-01T17:59:35.998Z,2.28
2022-10-01T18:01:09.182Z,1.83
2022-10-01T18:02:42.973Z,2.10
2022-10-01T18:04:15.381Z,2.28
2022-10-01T18:05:51.119Z,2.13
2022-10-01T18:07:22.962Z,1.65
2022-10-01T18:08:56.196Z,2.13
2022-10-01T18:10:28.583Z,2.15
2022-10-01T18:12:02.933Z,1.63
2022-10-01T18:13:34.907Z,1.83
2022-10-01T18:15:10.779Z,3.30
2022-10-01T18:16:42.531Z,2.17
2022-10-01T18:19:45.758Z,2.00
2022-10-01T18:20:08.722Z,2.40
2022-10-01T18:21:41.662Z,2.95
2022-10-01T18:24:47.704Z,2.42
2022-10-01T18:26:21.890Z,2.13
2022-10-01T18:27:54.009Z,2.47
2022-10-01T18:29:27.289Z,2.22
2022-10-01T18:31:08.503Z,2.03
2022-10-01T18:32:42.553Z,2.10
2022-10-01T18:34:30.355Z,3.53
2022-10-01T18:36:03.322Z,3.17
2022-10-01T18:37:37.571Z,3.35
2022-10-01T18:39:13.723Z,3.42
2022-10-01T18:40:49.721Z,3.13
2022-10-01T18:42:27.824Z,3.40
2022-10-01T18:43:59.783Z,2.65
2022-10-01T18:45:33.084Z,3.80
2022-10-01T18:47:16.984Z,3.50
2022-10-01T18:48:54.967Z,3.25
2022-10-01T18:50:35.488Z,3.03
2022-10-01T18:52:19.817Z,3.63
2022-10-01T18:54:00.958Z,4.15
2022-10-01T18:55:40.772Z,3.92
2022-10-01T18:57:22.234Z,3.08
2022-10-01T18:58:56.991Z,3.40
2022-10-01T19:00:35.655Z,2.97
2022-10-01T19:02:26.528Z,2.50
2022-10-01T19:04:05.514Z,2.42
2022-10-01T19:05:42.960Z,2.47
2022-10-01T19:07:35.003Z,3.65
2022-10-01T19:09:15.938Z,3.63
2022-10-01T19:10:55.600Z,3.78
2022-10-01T19:12:47.068Z,2.53
2022-10-01T19:14:41.895Z,2.55
2022-10-01T19:16:39.585Z,2.75
2022-10-01T19:18:29.357Z,3.03
2022-10-01T19:20:06.161Z,2.78
2022-10-01T19:21:49.449Z,2.55
2022-10-01T19:23:39.311Z,1.90
2022-10-01T19:25:12.716Z,2.50
2022-10-01T19:27:09.749Z,2.45
2022-10-01T19:28:47.581Z,3.40
2022-10-01T19:30:20.210Z,2.35
2022-10-01T19:32:00.490Z,2.55
2022-10-01T19:33:37.807Z,3.25
2022-10-01T19:35:15.913Z,3.97
2022-10-01T19:37:01.995Z,2.45
2022-10-01T19:38:41.721Z,3.28
2022-10-01T19:40:19.523Z,3.42
2022-10-01T19:41:53.647Z,2.83
2022-10-01T19:43:39.433Z,3.50
2022-10-01T19:45:19.875Z,3.63
2022-10-01T19:46:52.813Z,3.25
2022-10-01T19:48:24.707Z,4.28
2022-10-01T19:49:58.016Z,3.80
2022-10-01T19:51:35.291Z,3.33
2022-10-01T19:53:23.190Z,3.22
2022-10-01T19:54:59.334Z,2.50
2022-10-01T19:56:33.089Z,3.00
2022-10-01T19:58:13.531Z,3.28
2022-10-01T19:59:46.273Z,3.13
2022-10-01T20:01:23.172Z,2.17
2022-10-01T20:03:01.590Z,2.55
2022-10-01T20:04:49.371Z,3.60
2022-10-01T20:06:25.345Z,4.18
2022-10-01T20:08:05.573Z,3.85
2022-10-01T20:09:45.124Z,3.35
2022-10-01T20:11:23.335Z,2.70
2022-10-01T20:13:12.201Z,3.03
2022-10-01T20:15:02.618Z,2.92
2022-10-01T20:16:40.791Z,2.95
2022-10-01T20:18:19.188Z,2.80
2022-10-01T20:19:57.116Z,3.75
2022-10-01T20:21:43.723Z,2.78
2022-10-01T20:23:23.194Z,2.78
2022-10-01T20:25:18.625Z,3.30
2022-10-01T20:26:53.473Z,2.47
2022-10-01T20:28:25.256Z,4.28
2022-10-01T20:30:17.531Z,4.40
2022-10-01T20:32:04.772Z,4.05
2022-10-01T20:33:36.549Z,3.72
2022-10-01T20:35:08.255Z,3.65
2022-10-01T20:36:46.165Z,3.40
2022-10-01T20:38:20.870Z,3.33
2022-10-01T20:39:55.495Z,3.83
2022-10-01T20:41:33.397Z,2.92
2022-10-01T20:43:25.792Z,3.65
2022-10-01T20:44:58.909Z,3.35
2022-10-01T20:46:33.753Z,4.65
2022-10-01T20:48:13.490Z,4.32
2022-10-01T20:49:54.612Z,3.47
2022-10-01T20:51:32.940Z,3.50
2022-10-01T20:53:18.313Z,4.10
2022-10-01T20:54:57.443Z,4.47
2022-10-01T20:56:38.343Z,4.30
2022-10-01T20:58:21.321Z,4.07
2022-10-01T21:01:27.492Z,3.45
2022-10-01T21:03:14.385Z,3.80
2022-10-01T21:04:52.264Z,3.15
2022-10-01T21:06:27.048Z,4.53
2022-10-01T21:08:17.400Z,3.88
2022-10-01T21:09:50.375Z,3.10
2022-10-01T21:11:45.619Z,3.20
2022-10-01T21:13:21.913Z,4.25
2022-10-01T21:14:57.233Z,3.60
2022-10-01T21:16:41.288Z,3.88
2022-10-01T21:18:23.488Z,4.20
2022-10-01T21:20:07.087Z,3.85
2022-10-01T21:21:57.261Z,4.18
2022-10-01T21:23:31.850Z,3.63
2022-10-01T21:25:10.575Z,3.90
2022-10-01T21:26:42.239Z,3.60
2022-10-01T21:28:17.825Z,4.53
2022-10-01T21:30:04.057Z,2.95
2022-10-01T21:31:36.131Z,4.35
2022-10-01T21:33:15.143Z,3.47
2022-10-01T21:34:55.791Z,3.92
2022-10-01T21:36:39.215Z,3.88
2022-10-01T21:38:16.190Z,3.47
2022-10-01T21:40:01.668Z,4.07
2022-10-01T21:41:40.273Z,3.55
2022-10-01T21:43:24.293Z,4.57
2022-10-01T21:45:15.796Z,3.42
2022-10-01T21:46:54.745Z,3.50
2022-10-01T21:48:38.533Z,5.35
2022-10-01T21:50:34.800Z,3.15
2022-10-01T21:52:23.945Z,3.08
2022-10-01T21:54:08.486Z,3.78
2022-10-01T21:55:43.444Z,2.97
2022-10-01T21:57:34.188Z,3.53
2022-10-01T21:59:19.087Z,3.75
2022-10-01T22:00:55.940Z,3.70
2022-10-01T22:02:33.981Z,3.88
2022-10-01T22:04:17.759Z,3.00
2022-10-01T22:05:56.651Z,3.47
2022-10-01T22:07:33.774Z,3.22
2022-10-01T22:09:27.967Z,3.55
2022-10-01T22:11:20.409Z,3.53
2022-10-01T22:12:58.868Z,2.63
2022-10-01T22:14:31.707Z,3.47
2022-10-01T22:16:08.612Z,3.13
2022-10-01T22:17:43.089Z,4.00
2022-10-01T22:19:22.245Z,3.10
2022-10-01T22:20:55.482Z,3.63
2022-10-01T22:22:30.756Z,4.35
2022-10-01T22:24:11.882Z,4.80
2022-10-01T22:25:56.144Z,3.08
2022-10-01T22:27:35.443Z,2.92
2022-10-01T22:29:10.344Z,3.58
2022-10-01T22:30:43.663Z,3.03
2022-10-01T22:32:17.372Z,3.58
2022-10-01T22:33:57.628Z,3.15
2022-10-01T22:35:32.773Z,5.55
2022-10-01T22:37:13.026Z,3.25
2022-10-01T22:38:55.850Z,3.00
2022-10-01T22:40:29.513Z,3.85
2022-10-01T22:42:10.580Z,3.85
2022-10-01T22:43:46.045Z,3.50
2022-10-01T22:45:24.207Z,3.97
2022-10-01T22:47:08.669Z,4.88
2022-10-01T22:48:49.370Z,4.03
2022-10-01T22:50:45.691Z,3.10
2022-10-01T22:52:20.498Z,3.22
2022-10-01T22:53:52.247Z,4.10
2022-10-01T22:55:28.735Z,3.40
2022-10-01T22:57:00.462Z,3.58
2022-10-01T22:58:32.268Z,3.45
2022-10-01T23:00:09.777Z,3.55
2022-10-01T23:02:01.494Z,3.28
2022-10-01T23:03:46.253Z,3.38
2022-10-01T23:05:36.494Z,3.17
2022-10-01T23:07:31.176Z,4.13
2022-10-01T23:09:13.546Z,4.20
2022-10-01T23:11:00.084Z,3.20
2022-10-01T23:12:48.454Z,3.38
2022-10-01T23:14:20.312Z,4.40
2022-10-01T23:16:09.782Z,3.50
2022-10-01T23:18:00.558Z,3.28
2022-10-01T23:19:35.218Z,4.20
2022-10-01T23:21:20.509Z,3.97
2022-10-01T23:22:52.213Z,3.28
2022-10-01T23:24:42.760Z,3.25
2022-10-01T23:26:26.372Z,3.30
2022-10-01T23:28:00.998Z,3.92
2022-10-01T23:29:44.997Z,3.72
2022-10-01T23:31:32.731Z,5.10
2022-10-01T23:33:04.780Z,3.38
2022-10-01T23:34:39.460Z,4.32
2022-10-01T23:36:11.191Z,3.75
2022-10-01T23:37:51.960Z,3.03
2022-10-01T23:39:42.459Z,3.33
2022-10-01T23:41:33.145Z,3.70
2022-10-01T23:43:34.064Z,4.75
2022-10-01T23:45:19.226Z,3.08
2022-10-01T23:46:51.914Z,4.40
2022-10-01T23:48:28.149Z,3.67
2022-10-01T23:50:01.109Z,3.20
2022-10-01T23:51:38.745Z,5.05
2022-10-01T23:53:22.252Z,3.75
2022-10-01T23:55:24.768Z,4.50
2022-10-01T23:57:06.333Z,4.30
2022-10-01T23:58:43.299Z,3.75
